Latest Weather Observations for Dunalley

IDT60901

Issued at 2:45 pm EDT Sunday 26 October 2014 (issued every 10 minutes, with the page automatically refreshed every 10 minutes)

About weather observations | Map of Hobart area stations | Latest observations for Hobart area | Other Formats
Station Details ID: 094254 Name: DUNALLEY (STROUD POINT) Lat: -42.90 Lon: 147.79 Height: 12.43 m
Data from the previous 72 hours. | See also: Recent months at Dunalley
Date/Time
EDT
Tmp

°C
App
Tmp
°C
Dew
Point
°C
Rel
Hum
%
Delta-T

°C
Wind Press
QNH
hPa
Press
MSL
hPa
Rain
since
9 am
mm
Dir
 
Spd
km/h
Gust
km/h
Spd
kts
Gust
kts
26/02:30pm 13.4 6.1 10.2 81 1.7 NE 39 48 21 26 1012.6 1012.6 0.2
26/02:00pm 13.1 7.1 10.8 86 1.2 NE 33 44 18 24 1013.2 1013.2 0.2
26/01:30pm 13.1 6.2 10.3 83 1.4 NE 37 44 20 24 1013.4 1013.4 0.2
26/01:00pm 12.8 5.1 10.2 84 1.3 NE 41 50 22 27 1013.5 1013.5 0.2
26/12:30pm 12.7 7.2 10.4 86 1.2 ENE 30 39 16 21 1014.0 1014.0 0.2
26/12:00pm 12.3 6.1 10.0 86 1.2 ENE 33 44 18 24 1014.3 1014.3 0.2
26/11:30am 12.2 6.3 10.6 90 0.8 ENE 32 37 17 20 1014.3 1014.3 0.2
26/11:00am 11.7 5.7 10.1 90 0.8 ENE 32 41 17 22 1014.7 1014.7 0.2
26/10:30am 11.2 6.0 10.1 93 0.6 ENE 28 37 15 20 1014.9 1014.9 0.2
26/10:00am 11.0 5.8 10.2 95 0.4 ENE 28 35 15 19 1015.0 1015.0 0.2
26/09:30am 11.1 7.5 10.6 97 0.3 ENE 20 30 11 16 1015.1 1015.1 0.2
26/09:00am 10.6 6.9 10.1 97 0.3 ENE 20 26 11 14 1015.3 1015.3 11.4
26/08:30am 10.6 6.9 10.1 97 0.3 ENE 20 24 11 13 1015.2 1015.2 10.8
26/08:00am 10.4 8.0 9.9 97 0.3 ESE 13 17 7 9 1015.1 1015.1 10.4
26/07:30am 10.2 9.0 9.6 96 0.3 ESE 6 9 3 5 1015.2 1015.2 10.2
26/07:00am 9.9 9.0 9.3 96 0.3 ESE 4 7 2 4 1015.2 1015.2 9.4
26/06:30am 9.8 9.3 9.3 97 0.2 ESE 2 6 1 3 1015.3 1015.3 7.6
26/06:00am 9.8 8.5 9.3 97 0.2 ESE 6 7 3 4 1015.1 1015.1 7.0
26/05:30am 9.7 8.2 9.1 96 0.3 ESE 7 9 4 5 1015.2 1015.2 5.6
26/05:00am 9.9 8.5 9.4 97 0.2 ESE 7 11 4 6 1015.3 1015.3 5.4
26/04:30am 9.8 8.3 9.2 96 0.3 ESE 7 11 4 6 1015.4 1015.4 5.0
26/04:00am 9.7 9.1 8.8 94 0.4 ESE 2 4 1 2 1015.6 1015.6 4.6
26/03:30am 9.7 8.3 8.8 94 0.4 ESE 6 7 3 4 1015.9 1015.9 4.4
26/03:00am 9.8 7.8 8.7 93 0.5 ESE 9 13 5 7 1015.6 1015.6 4.2
26/02:30am 9.9 8.2 8.3 90 0.8 ESE 7 11 4 6 1016.4 1016.4 4.0
26/02:00am 9.7 8.0 8.5 92 0.6 ESE 7 11 4 6 1016.7 1016.7 4.0
26/01:30am 9.5 7.9 8.7 95 0.4 ESE 7 11 4 6 1016.9 1016.9 4.0
26/01:00am 9.5 7.5 8.7 95 0.4 ESE 9 11 5 6 1017.5 1017.5 3.8
26/12:30am 9.7 8.6 8.5 92 0.6 ESE 4 7 2 4 1018.1 1018.1 3.4
26/12:00am 10.7 9.9 8.1 84 1.3 ESE 2 6 1 3 1018.3 1018.3 0.8
 
Date/Time
EDT
Tmp

°C
App
Tmp
°C
Dew
Point
°C
Rel
Hum
%
Delta-T

°C
Wind Press
QNH
hPa
Press
MSL
hPa
Rain
since
9 am
mm
Dir
 
Spd
km/h
Gust
km/h
Spd
kts
Gust
kts
25/11:30pm 11.4 9.3 6.7 73 2.2 ESE 7 11 4 6 1017.7 1017.7 0.0
25/11:00pm 11.3 8.9 7.0 75 2.0 ESE 9 13 5 7 1017.6 1017.6 0.0
25/10:30pm 11.4 10.1 7.5 77 1.9 ESE 4 7 2 4 1018.1 1018.1 0.0
25/10:00pm 11.4 8.9 6.5 72 2.3 ESE 9 13 5 7 1018.2 1018.2 0.0
25/09:30pm 11.5 8.7 6.8 73 2.2 ESE 11 15 6 8 1018.2 1018.2 0.0
25/09:00pm 11.6 8.1 7.1 74 2.1 ESE 15 20 8 11 1018.0 1018.0 0.0
25/08:30pm 11.9 8.9 7.6 75 2.1 SSE 13 19 7 10 1017.9 1017.9 0.0
25/08:00pm 11.9 8.7 7.0 72 2.3 SSE 13 17 7 9 1017.6 1017.6 0.0
25/07:30pm 12.1 7.7 7.4 73 2.3 S 20 24 11 13 1017.6 1017.6 0.0
25/07:00pm 12.4 7.8 8.3 76 2.0 SSE 22 30 12 16 1017.3 1017.3 0.0
25/06:30pm 12.6 7.7 8.3 75 2.1 S 24 28 13 15 1017.1 1017.1 0.0
25/06:00pm 13.0 8.1 8.3 73 2.3 S 24 28 13 15 1016.7 1016.7 0.0
25/05:30pm 14.3 10.0 9.5 73 2.5 S 22 26 12 14 1016.2 1016.2 0.0
25/05:00pm 14.1 10.3 9.1 72 2.5 S 19 22 10 12 1016.4 1016.4 0.0
25/04:30pm 14.9 11.9 9.1 68 3.0 SSE 15 20 8 11 1016.2 1016.2 0.0
25/04:00pm 14.7 10.7 9.1 69 2.9 S 20 28 11 15 1016.4 1016.4 0.0
25/03:30pm 15.2 11.3 9.6 69 2.9 S 20 28 11 15 1016.2 1016.2 0.0
25/03:00pm 15.4 11.8 10.4 72 2.6 S 20 28 11 15 1016.0 1016.0 0.0
25/02:30pm 15.4 11.2 11.2 76 2.2 S 24 30 13 16 1016.1 1016.1 0.0
25/02:00pm 16.6 12.8 11.3 71 2.9 SSW 22 28 12 15 1016.2 1016.2 0.0
25/01:30pm 16.5 12.3 11.0 70 2.9 SSW 24 30 13 16 1015.9 1015.9 0.0
25/01:00pm 16.3 12.3 10.4 68 3.1 SSW 22 26 12 14 1015.9 1015.9 0.0
25/12:30pm 16.2 12.2 10.5 69 3.0 SSW 22 28 12 15 1015.8 1015.8 0.0
25/12:00pm 16.1 11.0 10.6 70 2.9 SSW 28 35 15 19 1015.7 1015.7 0.0
25/11:30am 16.2 11.9 10.7 70 2.9 SSW 24 32 13 17 1015.6 1015.6 0.0
25/11:00am 15.7 9.8 10.5 71 2.7 SSW 32 39 17 21 1015.4 1015.4 0.0
25/10:30am 14.9 9.0 10.3 74 2.4 SSW 32 39 17 21 1015.2 1015.2 0.0
25/10:00am 15.2 10.0 10.4 73 2.5 S 28 33 15 18 1015.1 1015.1 0.0
25/09:30am 15.1 10.4 10.5 74 2.4 SSW 26 33 14 18 1015.2 1015.2 0.0
25/09:00am 13.7 9.7 10.5 81 1.7 SSW 22 30 12 16 1015.2 1015.2 0.0
25/08:30am 13.8 9.5 10.6 81 1.7 SSW 24 30 13 16 1014.7 1014.7 0.0
25/08:00am 13.4 9.5 10.9 85 1.3 SSW 22 28 12 15 1014.3 1014.3 0.0
25/07:30am 13.2 9.3 10.9 86 1.2 SSW 22 30 12 16 1013.8 1013.8 0.0
25/07:00am 13.4 10.1 11.6 89 1.0 SSW 20 26 11 14 1013.2 1013.2 0.0
25/06:30am 13.5 10.0 12.1 91 0.8 SSW 22 30 12 16 1012.7 1012.7 0.0
25/06:00am 13.4 10.4 12.5 94 0.5 SSW 20 26 11 14 1012.1 1012.1 0.0
25/05:30am 13.7 13.1 12.3 91 0.8 SSW 7 13 4 7 1011.7 1011.7 0.0
25/05:00am 13.7 10.8 12.4 92 0.7 SW 19 24 10 13 1011.1 1011.1 0.0
25/04:30am 13.7 12.1 12.8 94 0.5 SW 13 19 7 10 1010.7 1010.7 0.0
25/04:00am 13.7 12.1 12.8 94 0.5 SW 13 15 7 8 1010.3 1010.3 0.0
25/03:30am 13.5 11.1 12.6 94 0.5 SSW 17 20 9 11 1009.7 1009.7 0.0
25/03:00am 13.7 11.5 12.1 90 0.9 SSW 15 20 8 11 1009.5 1009.5 0.0
25/02:30am 12.7 11.8 11.3 91 0.7 SW 7 9 4 5 1009.2 1009.2 0.0
25/02:00am 13.6 13.2 12.3 92 0.7 SW 6 9 3 5 1008.6 1008.6 0.0
25/01:30am 13.9 13.5 13.1 95 0.4 SW 7 9 4 5 1008.5 1008.5 0.0
25/01:00am 14.1 12.5 13.8 98 0.2 SE 15 19 8 10 1009.0 1009.0 0.0
25/12:30am 13.4 13.2 12.9 97 0.3 ENE 6 7 3 4 1008.3 1008.3 0.0
25/12:00am 13.8 13.6 13.5 98 0.2 NE 7 13 4 7 1008.7 1008.7 0.0
 
Date/Time
EDT
Tmp

°C
App
Tmp
°C
Dew
Point
°C
Rel
Hum
%
Delta-T

°C
Wind Press
QNH
hPa
Press
MSL
hPa
Rain
since
9 am
mm
Dir
 
Spd
km/h
Gust
km/h
Spd
kts
Gust
kts
24/11:30pm 14.0 14.0 13.7 98 0.2 NE 6 7 3 4 1008.1 1008.1 0.0
24/11:00pm 14.1 13.9 13.6 97 0.3 NE 7 11 4 6 1008.1 1008.1 0.0
24/10:30pm 14.4 14.3 13.8 96 0.3 NE 7 11 4 6 1008.2 1008.2 0.0
24/10:00pm 14.6 12.1 14.0 96 0.3 NE 20 24 11 13 1008.2 1008.2 0.0
24/09:30pm 14.9 13.4 14.1 95 0.5 NE 15 19 8 10 1008.7 1008.7 0.0
24/09:00pm 15.0 12.7 14.0 94 0.6 ENE 19 24 10 13 1008.9 1008.9 0.0
24/08:30pm 15.0 14.6 14.0 94 0.6 NE 9 15 5 8 1008.5 1008.5 0.0
24/08:00pm 14.7 10.3 14.1 96 0.3 ENE 30 37 16 20 1008.1 1008.1 0.0
24/07:30pm 15.1 10.3 14.0 93 0.6 NE 32 43 17 23 1007.8 1007.8 0.0
24/07:00pm 15.3 10.3 14.0 92 0.7 NE 33 44 18 24 1008.5 1008.5 0.0
24/06:30pm 15.4 10.1 14.1 92 0.7 NE 35 44 19 24 1009.1 1009.1 0.0
24/06:00pm 15.4 10.1 14.1 92 0.7 NE 35 43 19 23 1009.7 1009.7 0.0
24/05:30pm 15.3 12.5 14.2 93 0.6 NE 22 32 12 17 1010.4 1010.4 0.0
24/05:00pm 15.3 12.4 14.0 92 0.7 NE 22 32 12 17 1010.6 1010.6 0.0
24/04:30pm 14.9 11.3 14.3 96 0.3 NE 26 33 14 18 1010.7 1010.7 0.0
24/04:00pm 14.7 10.3 14.1 96 0.3 NE 30 39 16 21 1011.3 1011.3 0.0
24/03:30pm 15.1 10.1 14.0 93 0.6 NE 33 46 18 25 1011.6 1011.6 0.0
24/03:00pm 15.1 10.6 13.8 92 0.7 NE 30 35 16 19 1012.2 1012.2 0.0
24/02:30pm 14.6 9.5 13.6 94 0.6 NE 33 43 18 23 1012.9 1012.9 0.0
24/02:00pm 14.8 9.7 13.7 93 0.6 NE 33 43 18 23 1013.5 1013.5 0.0
24/01:30pm 14.0 8.7 13.2 95 0.4 NE 33 41 18 22 1014.4 1014.4 0.0
24/01:00pm 14.1 8.4 13.1 94 0.6 NE 35 44 19 24 1014.9 1014.9 0.0
24/12:30pm 14.4 9.1 13.1 92 0.7 NE 33 43 18 23 1015.4 1015.4 0.0
24/12:00pm 13.7 8.2 12.6 93 0.6 NE 33 41 18 22 1016.0 1016.0 0.0
24/11:30am 13.6 6.9 12.2 91 0.8 NE 39 50 21 27 1016.5 1016.5 0.0
24/11:00am 13.6 7.7 11.3 86 1.2 NNE 33 46 18 25 1017.1 1017.1 0.0
24/10:30am 14.2 8.3 11.0 81 1.7 NE 33 48 18 26 1017.6 1017.6 0.0
24/10:00am 13.6 6.6 9.8 78 1.9 NE 37 52 20 28 1017.9 1017.9 0.0
24/09:51am 13.5 7.2 9.6 77 2.0 NE 33 52 18 28 1018.0 1018.0 0.0
24/09:30am 13.4 6.3 9.5 77 2.0 NE 37 44 20 24 1018.2 1018.2 0.0
24/09:00am 13.3 6.0 8.6 73 2.3 NE 37 48 20 26 1019.2 1019.2 0.0
24/08:30am 13.3 6.2 8.2 71 2.5 NNE 35 48 19 26 1019.6 1019.6 0.0
24/08:00am 12.9 6.3 7.8 71 2.5 NNE 32 46 17 25 1019.9 1019.9 0.0
24/07:30am 12.5 5.1 6.8 68 2.7 NNE 35 44 19 24 1020.3 1020.3 0.0
24/07:00am 12.1 4.0 6.8 70 2.5 NE 39 50 21 27 1020.2 1020.2 0.0
24/06:30am 12.0 5.2 6.9 71 2.4 NNE 32 46 17 25 1020.7 1020.7 0.0
24/06:00am 11.5 4.6 6.4 71 2.4 NNE 32 43 17 23 1020.8 1020.8 0.0
24/05:30am 11.5 4.6 6.6 72 2.3 NNE 32 41 17 22 1021.0 1021.0 0.0
24/05:00am 11.3 4.2 6.6 73 2.2 NE 33 41 18 22 1021.0 1021.0 0.0
24/04:30am 11.1 5.0 6.5 73 2.2 NNE 28 37 15 20 1021.5 1021.5 0.0
24/04:00am 10.5 7.1 6.1 74 2.0 N 13 22 7 12 1022.1 1022.1 0.0
24/03:30am 10.8 7.0 6.0 72 2.2 N 15 22 8 12 1022.7 1022.7 0.0
24/03:00am 10.8 6.7 6.4 74 2.1 NNE 17 26 9 14 1022.9 1022.9 0.0
24/02:30am 10.4 6.6 5.8 73 2.1 NNE 15 22 8 12 1023.3 1023.3 0.0
24/02:00am 9.8 7.1 5.4 74 2.0 N 9 17 5 9 1023.8 1023.8 0.0
24/01:30am 10.9 7.8 5.7 70 2.4 N 11 19 6 10 1024.1 1024.1 0.0
24/01:00am 10.4 6.6 5.6 72 2.2 NNE 15 22 8 12 1024.5 1024.5 0.0
24/12:30am 10.7 7.3 5.9 72 2.2 NNE 13 22 7 12 1024.7 1024.7 0.0
24/12:00am 10.4 6.2 5.6 72 2.2 NNE 17 24 9 13 1024.9 1024.9 0.0
 
Date/Time
EDT
Tmp

°C
App
Tmp
°C
Dew
Point
°C
Rel
Hum
%
Delta-T

°C
Wind Press
QNH
hPa
Press
MSL
hPa
Rain
since
9 am
mm
Dir
 
Spd
km/h
Gust
km/h
Spd
kts
Gust
kts
23/11:30pm 10.9 6.7 5.9 71 2.3 NNE 17 28 9 15 1025.4 1025.5 0.0
23/11:00pm 10.5 5.7 5.5 71 2.3 NNE 20 28 11 15 1025.2 1025.2 0.0
23/10:30pm 10.9 4.3 6.1 72 2.2 NE 30 41 16 22 1025.1 1025.1 0.0
23/10:00pm 10.8 5.3 5.8 71 2.3 NNE 24 33 13 18 1025.5 1025.6 0.0
23/09:30pm 11.0 5.1 5.7 70 2.4 NE 26 32 14 17 1025.9 1026.0 0.0
23/09:00pm 11.2 5.7 5.9 70 2.4 NE 24 32 13 17 1026.1 1026.2 0.0
23/08:30pm 11.3 6.2 6.2 71 2.4 ENE 22 26 12 14 1026.0 1026.1 0.0
23/08:00pm 11.3 6.2 6.0 70 2.5 ENE 22 30 12 16 1025.9 1026.0 0.0
23/07:30pm 11.4 6.3 6.1 70 2.5 E 22 28 12 15 1026.0 1026.1 0.0
23/07:00pm 11.8 5.2 6.1 68 2.7 ENE 30 39 16 21 1025.6 1025.7 0.0
23/06:30pm 12.3 6.5 6.4 67 2.8 ENE 26 33 14 18 1025.5 1025.6 0.0
23/06:00pm 12.7 6.9 6.1 64 3.1 ENE 26 32 14 17 1025.6 1025.7 0.0
23/05:30pm 13.1 7.2 5.8 61 3.4 ENE 26 32 14 17 1025.4 1025.5 0.0
23/05:00pm 13.3 7.8 5.7 60 3.6 ENE 24 32 13 17 1025.3 1025.3 0.0
23/04:30pm 13.9 8.6 6.7 62 3.5 ENE 24 32 13 17 1025.3 1025.3 0.0
23/04:00pm 14.3 9.1 7.1 62 3.5 ENE 24 33 13 18 1025.2 1025.2 0.0
23/03:30pm 14.0 7.7 5.9 58 3.8 NE 28 35 15 19 1025.1 1025.1 0.0
23/03:00pm 14.8 9.4 6.4 57 4.0 NE 24 37 13 20 1025.1 1025.1 0.0

Latest Capital City Observations: Canberra | Sydney | Melbourne | Brisbane | Adelaide | Perth | Hobart | Darwin

Other Formats:

Comma delimited format used in spreadsheet applications
http://www.bom.gov.au/fwo/IDT60901/IDT60901.94951.axf

JavaScript Object Notation format (JSON) in row-major order
http://www.bom.gov.au/fwo/IDT60901/IDT60901.94951.json